createdAt,value
2018-10-21T00:00:42.312Z,23.27
2018-10-21T00:03:11.080Z,23.83
2018-10-21T00:05:39.610Z,20.17
2018-10-21T00:08:08.503Z,21.57
2018-10-21T00:10:37.004Z,22.77
2018-10-21T00:13:05.585Z,23.47
2018-10-21T00:15:40.873Z,28.63
2018-10-21T00:18:09.288Z,25.03
2018-10-21T00:20:37.877Z,22.47
2018-10-21T00:23:06.725Z,20.47
2018-10-21T00:25:35.338Z,22.33
2018-10-21T00:28:03.880Z,21.57
2018-10-21T00:30:32.432Z,22.90
2018-10-21T00:33:01.095Z,20.83
2018-10-21T00:35:29.598Z,22.77
2018-10-21T00:37:58.620Z,20.70
2018-10-21T00:40:27.152Z,22.80
2018-10-21T00:42:55.639Z,21.43
2018-10-21T00:45:24.215Z,19.90
2018-10-21T00:47:52.762Z,20.93
2018-10-21T00:50:21.262Z,20.67
2018-10-21T00:52:49.804Z,23.17
2018-10-21T00:55:18.331Z,24.07
2018-10-21T00:57:46.949Z,27.63
2018-10-21T01:00:15.631Z,28.00
2018-10-21T01:02:44.163Z,26.27
2018-10-21T01:05:12.691Z,25.37
2018-10-21T01:07:41.237Z,28.33
2018-10-21T01:10:11.425Z,31.13
2018-10-21T01:12:40.597Z,30.53
2018-10-21T01:15:10.689Z,31.27
2018-10-21T01:17:39.207Z,28.20
2018-10-21T01:20:09.851Z,29.87
2018-10-21T01:22:38.836Z,33.97
2018-10-21T01:25:08.361Z,31.87
2018-10-21T01:27:37.237Z,30.10
2018-10-21T01:30:06.934Z,38.30
2018-10-21T01:32:36.089Z,35.37
2018-10-21T01:35:04.885Z,36.53
2018-10-21T01:37:33.411Z,34.53
2018-10-21T01:40:44.191Z,34.10
2018-10-21T01:43:14.361Z,36.00
2018-10-21T01:45:42.991Z,32.10
2018-10-21T01:48:13.661Z,35.17
2018-10-21T01:50:42.227Z,36.50
2018-10-21T01:53:12.039Z,37.10
2018-10-21T01:55:41.209Z,33.07
2018-10-21T01:58:09.716Z,37.90
2018-10-21T02:00:38.895Z,38.83
2018-10-21T02:03:07.546Z,33.60
2018-10-21T02:05:36.691Z,38.87
2018-10-21T02:08:06.621Z,36.70
2018-10-21T02:10:35.137Z,37.23
2018-10-21T02:13:03.747Z,38.77
2018-10-21T02:15:32.288Z,40.47
2018-10-21T02:18:00.745Z,36.80
2018-10-21T02:20:29.636Z,43.57
2018-10-21T02:22:58.217Z,38.30
2018-10-21T02:25:26.746Z,39.50
2018-10-21T02:27:55.316Z,40.37
2018-10-21T02:30:26.133Z,44.27
2018-10-21T02:32:55.244Z,40.70
2018-10-21T02:35:23.934Z,39.83
2018-10-21T02:37:53.481Z,42.73
2018-10-21T02:41:35.312Z,41.13
2018-10-21T02:44:04.722Z,43.37
2018-10-21T02:46:33.808Z,37.17
2018-10-21T02:49:03.216Z,43.90
2018-10-21T02:51:31.802Z,41.83
2018-10-21T02:54:00.418Z,41.57
2018-10-21T02:56:28.959Z,42.83
2018-10-21T02:58:57.500Z,44.13
2018-10-21T03:01:26.682Z,41.93
2018-10-21T03:03:55.206Z,38.63
2018-10-21T03:06:23.879Z,40.43
2018-10-21T03:08:52.373Z,41.47
2018-10-21T03:11:20.978Z,42.03
2018-10-21T03:13:49.478Z,41.57
2018-10-21T03:16:18.014Z,39.03
2018-10-21T03:18:46.512Z,44.73
2018-10-21T03:21:15.224Z,37.67
2018-10-21T03:23:43.717Z,40.10
2018-10-21T03:26:12.280Z,41.10
2018-10-21T03:28:40.793Z,47.70
2018-10-21T03:31:09.298Z,46.30
2018-10-21T03:33:37.903Z,42.43
2018-10-21T03:36:06.520Z,40.97
2018-10-21T03:38:35.108Z,41.07
2018-10-21T03:41:03.606Z,44.07
2018-10-21T03:43:32.148Z,44.57
2018-10-21T03:46:00.671Z,43.10
2018-10-21T03:48:29.250Z,44.70
2018-10-21T03:50:57.795Z,41.57
2018-10-21T03:53:26.328Z,42.50
2018-10-21T03:55:54.853Z,40.37
2018-10-21T03:58:23.495Z,42.80
2018-10-21T04:00:52.060Z,43.43
2018-10-21T04:03:20.563Z,39.63
2018-10-21T04:05:49.820Z,43.50
2018-10-21T04:08:18.344Z,37.77
2018-10-21T04:10:46.855Z,36.17
2018-10-21T04:13:15.361Z,39.43
2018-10-21T04:15:43.898Z,34.43
2018-10-21T04:18:12.391Z,45.20
2018-10-21T04:20:41.064Z,41.87
2018-10-21T04:23:09.641Z,45.80
2018-10-21T04:25:38.965Z,47.07
2018-10-21T04:28:08.298Z,46.50
2018-10-21T04:30:38.001Z,46.47
2018-10-21T04:33:11.033Z,47.10
2018-10-21T04:35:39.588Z,45.23
2018-10-21T04:38:33.431Z,46.47
2018-10-21T04:41:02.002Z,41.87
2018-10-21T04:43:30.582Z,46.37
2018-10-21T04:45:59.103Z,46.67
2018-10-21T04:48:27.607Z,50.17
2018-10-21T04:50:56.208Z,48.63
2018-10-21T04:53:24.833Z,48.43
2018-10-21T04:55:53.975Z,46.20
2018-10-21T04:58:23.447Z,46.70
2018-10-21T05:00:52.046Z,50.30
2018-10-21T05:03:20.600Z,47.33
2018-10-21T05:05:49.183Z,52.53
2018-10-21T05:08:17.695Z,54.03
2018-10-21T05:10:46.815Z,54.97
2018-10-21T05:13:15.319Z,52.37
2018-10-21T05:15:43.851Z,51.50
2018-10-21T05:18:12.399Z,53.90
2018-10-21T05:20:40.897Z,54.90
2018-10-21T05:23:09.447Z,46.90
2018-10-21T05:25:37.939Z,47.43
2018-10-21T05:28:06.525Z,48.77
2018-10-21T05:30:34.997Z,48.33
2018-10-21T05:33:03.498Z,57.97
2018-10-21T05:35:31.989Z,57.73
2018-10-21T05:38:00.651Z,53.33
2018-10-21T05:40:29.122Z,51.27
2018-10-21T05:42:57.734Z,50.80
2018-10-21T05:45:26.360Z,49.60
2018-10-21T05:47:54.864Z,53.60
2018-10-21T05:50:23.485Z,56.33
2018-10-21T05:52:52.134Z,59.83
2018-10-21T05:55:20.633Z,61.80
2018-10-21T05:57:49.182Z,65.77
2018-10-21T06:00:20.067Z,72.77
2018-10-21T06:02:48.635Z,76.37
2018-10-21T06:05:42.955Z,69.10
2018-10-21T06:08:11.683Z,65.93
2018-10-21T06:10:40.614Z,67.73
2018-10-21T06:13:09.655Z,67.50
2018-10-21T06:15:38.168Z,64.37
2018-10-21T06:18:37.747Z,65.63
2018-10-21T06:21:07.357Z,62.47
2018-10-21T06:23:35.882Z,66.63
2018-10-21T06:26:05.751Z,65.63
2018-10-21T06:28:34.550Z,68.67
2018-10-21T06:31:04.040Z,67.37
2018-10-21T06:33:32.598Z,58.87
2018-10-21T06:36:01.419Z,62.80
2018-10-21T06:38:30.326Z,56.60
2018-10-21T06:40:58.854Z,58.63
2018-10-21T06:43:29.854Z,52.97
2018-10-21T06:45:58.573Z,54.70
2018-10-21T06:48:27.273Z,49.90
2018-10-21T06:50:55.833Z,56.20
2018-10-21T06:53:24.486Z,64.00
2018-10-21T06:55:53.166Z,59.73
2018-10-21T06:58:21.680Z,59.57
2018-10-21T07:00:50.316Z,59.13
2018-10-21T07:03:18.841Z,59.97
2018-10-21T07:06:22.601Z,54.97
2018-10-21T07:08:52.262Z,56.90
2018-10-21T07:11:20.756Z,59.60
2018-10-21T07:13:49.258Z,60.57
2018-10-21T07:16:17.937Z,66.00
2018-10-21T07:18:47.454Z,58.03
2018-10-21T07:21:16.514Z,57.63
2018-10-21T07:23:45.406Z,59.47
2018-10-21T07:26:13.903Z,56.90
2018-10-21T07:28:42.891Z,53.87
2018-10-21T07:31:11.482Z,57.67
2018-10-21T07:33:40.117Z,54.73
2018-10-21T07:36:08.674Z,56.73
2018-10-21T07:38:37.209Z,56.87
2018-10-21T07:41:05.888Z,53.23
2018-10-21T07:43:34.433Z,51.10
2018-10-21T07:46:03.119Z,50.07
2018-10-21T07:48:31.628Z,50.57
2018-10-21T07:51:00.161Z,55.17
2018-10-21T07:53:28.669Z,52.37
2018-10-21T07:55:57.275Z,46.77
2018-10-21T07:58:25.903Z,50.60
2018-10-21T08:00:54.458Z,53.10
2018-10-21T08:03:22.965Z,53.23
2018-10-21T08:06:02.888Z,47.10
2018-10-21T08:08:31.474Z,50.67
2018-10-21T08:10:59.952Z,51.17
2018-10-21T08:13:28.474Z,47.60
2018-10-21T08:15:57.119Z,54.73
2018-10-21T08:18:26.250Z,46.10
2018-10-21T08:20:54.792Z,46.10
2018-10-21T08:23:23.321Z,44.10
2018-10-21T08:25:51.794Z,46.10
2018-10-21T08:28:20.380Z,49.97
2018-10-21T08:30:49.084Z,50.10
2018-10-21T08:33:17.573Z,49.67
2018-10-21T08:35:46.083Z,48.30
2018-10-21T08:38:14.714Z,49.50
2018-10-21T08:40:43.352Z,49.50
2018-10-21T08:43:11.858Z,51.03
2018-10-21T08:45:40.402Z,50.73
2018-10-21T08:48:09.158Z,45.47
2018-10-21T08:50:37.699Z,47.97
2018-10-21T08:53:06.281Z,48.97
2018-10-21T08:55:34.867Z,49.87
2018-10-21T08:58:03.445Z,44.60
2018-10-21T09:00:31.977Z,41.90
2018-10-21T09:03:00.467Z,43.20
2018-10-21T09:05:28.999Z,42.13
2018-10-21T09:07:57.662Z,39.93
2018-10-21T09:10:26.237Z,46.93
2018-10-21T09:12:55.361Z,41.03
2018-10-21T09:15:24.017Z,42.17
2018-10-21T09:17:52.528Z,40.53
2018-10-21T09:20:21.126Z,39.50
2018-10-21T09:22:49.875Z,41.03
2018-10-21T09:25:18.479Z,35.73
2018-10-21T09:27:46.931Z,33.40
2018-10-21T09:30:16.552Z,38.20
2018-10-21T09:32:45.073Z,39.20
2018-10-21T09:35:16.075Z,35.40
2018-10-21T09:37:47.158Z,33.90
2018-10-21T09:40:17.977Z,36.30
2018-10-21T09:42:47.119Z,32.27
2018-10-21T09:45:17.151Z,34.80
2018-10-21T09:47:45.956Z,31.77
2018-10-21T09:50:15.862Z,33.77
2018-10-21T09:52:45.272Z,28.63
2018-10-21T09:55:20.036Z,30.80
2018-10-21T09:57:49.703Z,23.47
2018-10-21T10:00:23.643Z,29.00
2018-10-21T10:02:57.388Z,23.83
2018-10-21T10:05:26.486Z,29.90
2018-10-21T10:07:55.818Z,27.23
2018-10-21T10:10:25.327Z,23.43
2018-10-21T10:12:53.880Z,22.00
2018-10-21T10:15:22.446Z,25.67
2018-10-21T10:17:51.016Z,26.17
2018-10-21T10:20:19.607Z,23.00
2018-10-21T10:22:48.270Z,22.20
2018-10-21T10:25:17.021Z,21.67
2018-10-21T10:27:45.536Z,27.60
2018-10-21T10:30:14.262Z,22.63
2018-10-21T10:32:43.717Z,22.63
2018-10-21T10:35:13.222Z,21.60
2018-10-21T10:37:42.424Z,23.30
2018-10-21T10:40:12.333Z,20.23
2018-10-21T10:42:41.165Z,20.63
2018-10-21T10:45:09.913Z,20.77
2018-10-21T10:47:38.920Z,22.50
2018-10-21T10:50:10.758Z,22.43
2018-10-21T10:52:39.691Z,21.37
2018-10-21T10:55:08.673Z,25.03
2018-10-21T10:57:37.927Z,22.00
2018-10-21T11:00:08.799Z,23.07
2018-10-21T11:02:37.164Z,22.23
2018-10-21T11:05:06.777Z,20.27
2018-10-21T11:07:35.329Z,19.67
2018-10-21T11:10:04.139Z,18.83
2018-10-21T11:12:32.671Z,19.47
2018-10-21T11:15:01.256Z,21.10
2018-10-21T11:17:29.806Z,20.70
2018-10-21T11:19:58.325Z,20.20
2018-10-21T11:22:26.940Z,20.37
2018-10-21T11:24:55.481Z,20.87
2018-10-21T11:27:23.963Z,20.80
2018-10-21T11:29:53.224Z,19.57
2018-10-21T11:32:21.767Z,19.20
2018-10-21T11:34:50.285Z,16.33
2018-10-21T11:37:18.985Z,18.90
2018-10-21T11:39:47.480Z,18.13
2018-10-21T11:42:16.000Z,15.80
2018-10-21T11:44:44.541Z,17.50
2018-10-21T11:47:13.093Z,16.43
2018-10-21T11:49:41.613Z,17.17
2018-10-21T11:52:10.808Z,22.00
2018-10-21T11:54:39.340Z,17.50
2018-10-21T11:57:07.965Z,15.63
2018-10-21T11:59:36.457Z,15.50
2018-10-21T12:02:05.260Z,17.70
2018-10-21T12:04:33.913Z,17.97
2018-10-21T12:07:02.795Z,17.07
2018-10-21T12:09:31.332Z,17.40
2018-10-21T12:11:59.921Z,18.13
2018-10-21T12:14:29.205Z,18.67
2018-10-21T12:16:57.803Z,18.93
2018-10-21T12:19:26.690Z,18.27
2018-10-21T12:21:55.327Z,16.77
2018-10-21T12:24:23.949Z,20.20
2018-10-21T12:26:52.561Z,16.87
2018-10-21T12:29:21.131Z,17.20
2018-10-21T12:31:49.814Z,17.27
2018-10-21T12:34:18.408Z,15.53
2018-10-21T12:36:53.409Z,15.07
2018-10-21T12:39:21.901Z,15.60
2018-10-21T12:41:50.426Z,15.00
2018-10-21T12:44:18.973Z,15.50
2018-10-21T12:46:47.552Z,14.37
2018-10-21T12:49:16.418Z,14.37
2018-10-21T12:51:44.884Z,14.23
2018-10-21T12:54:13.538Z,16.40
2018-10-21T12:56:42.055Z,11.93
2018-10-21T12:59:10.696Z,11.80
2018-10-21T13:01:39.357Z,15.37
2018-10-21T13:04:07.926Z,10.80
2018-10-21T13:06:36.537Z,10.93
2018-10-21T13:09:07.089Z,12.27
2018-10-21T13:11:35.620Z,14.03
2018-10-21T13:14:04.517Z,12.37
2018-10-21T13:16:33.087Z,11.27
2018-10-21T13:19:01.691Z,11.63
2018-10-21T13:21:30.366Z,9.90
2018-10-21T13:23:58.998Z,14.83
2018-10-21T13:26:27.670Z,12.43
2018-10-21T13:28:56.474Z,11.47
2018-10-21T13:31:24.806Z,11.90
2018-10-21T13:33:53.289Z,11.77
2018-10-21T13:36:21.842Z,11.97
2018-10-21T13:38:50.488Z,14.20
2018-10-21T13:41:19.044Z,10.83
2018-10-21T13:43:47.554Z,11.23
2018-10-21T13:46:16.312Z,11.63
2018-10-21T13:48:44.844Z,11.03
2018-10-21T13:51:13.340Z,13.10
2018-10-21T13:53:41.990Z,13.87
2018-10-21T13:56:10.574Z,12.07
2018-10-21T13:58:39.372Z,15.83
2018-10-21T14:01:08.006Z,13.20
2018-10-21T14:03:36.527Z,11.80
2018-10-21T14:06:05.121Z,13.63
2018-10-21T14:08:33.727Z,14.03
2018-10-21T14:11:02.291Z,16.00
2018-10-21T14:13:30.824Z,14.07
2018-10-21T14:15:59.467Z,15.97
2018-10-21T14:18:28.072Z,15.20
2018-10-21T14:20:56.599Z,16.53
2018-10-21T14:23:25.312Z,16.27
2018-10-21T14:25:53.895Z,18.57
2018-10-21T14:28:22.761Z,15.60
2018-10-21T14:30:52.034Z,14.33
2018-10-21T14:33:20.547Z,15.90
2018-10-21T14:35:49.271Z,13.37
2018-10-21T14:38:17.895Z,14.90
2018-10-21T14:40:46.432Z,13.97
2018-10-21T14:43:14.959Z,16.27
2018-10-21T14:45:43.527Z,17.10
2018-10-21T14:48:12.163Z,14.43
2018-10-21T14:50:40.763Z,18.07
2018-10-21T14:53:09.303Z,16.37
2018-10-21T14:55:37.839Z,17.27
2018-10-21T14:58:06.398Z,16.33
2018-10-21T15:00:35.157Z,15.73
2018-10-21T15:03:03.569Z,21.07
2018-10-21T15:05:32.073Z,17.20
2018-10-21T15:08:00.675Z,17.50
2018-10-21T15:10:29.173Z,20.40
2018-10-21T15:12:57.815Z,16.23
2018-10-21T15:15:26.523Z,16.33
2018-10-21T15:17:55.091Z,15.80
2018-10-21T15:20:23.609Z,18.27
2018-10-21T15:22:52.205Z,19.27
2018-10-21T15:25:20.677Z,26.40
2018-10-21T15:27:49.321Z,16.60
2018-10-21T15:30:18.642Z,17.17
2018-10-21T15:32:47.418Z,16.37
2018-10-21T15:35:16.053Z,16.00
2018-10-21T15:37:44.547Z,17.77
2018-10-21T15:40:13.616Z,17.60
2018-10-21T15:42:42.138Z,14.60
2018-10-21T15:45:11.871Z,16.33
2018-10-21T15:47:40.673Z,16.27
2018-10-21T15:50:09.533Z,15.77
2018-10-21T15:52:38.009Z,14.13
2018-10-21T15:55:07.246Z,16.23
2018-10-21T15:57:35.808Z,16.10
2018-10-21T16:00:04.871Z,15.03
2018-10-21T16:02:33.447Z,16.07
2018-10-21T16:05:02.014Z,13.97
2018-10-21T16:07:30.574Z,15.83
2018-10-21T16:09:59.119Z,14.53
2018-10-21T16:12:27.662Z,15.80
2018-10-21T16:14:56.182Z,14.50
2018-10-21T16:17:24.731Z,17.37
2018-10-21T16:19:53.412Z,15.80
2018-10-21T16:22:21.822Z,17.90
2018-10-21T16:24:50.433Z,14.50
2018-10-21T16:27:19.055Z,17.40
2018-10-21T16:29:47.721Z,16.53
2018-10-21T16:32:16.322Z,16.10
2018-10-21T16:34:44.843Z,17.70
2018-10-21T16:37:14.124Z,16.33
2018-10-21T16:39:42.619Z,19.80
2018-10-21T16:42:11.934Z,16.40
2018-10-21T16:44:40.439Z,19.23
2018-10-21T16:47:09.315Z,16.33
2018-10-21T16:52:58.908Z,18.57
2018-10-21T16:55:27.465Z,17.33
2018-10-21T16:57:56.000Z,11.90
2018-10-21T17:00:24.722Z,16.77
2018-10-21T17:02:53.262Z,14.60
2018-10-21T17:05:21.857Z,14.63
2018-10-21T17:07:50.388Z,15.93
2018-10-21T17:10:19.277Z,13.47
2018-10-21T17:12:48.053Z,14.67
2018-10-21T17:15:16.559Z,13.57
2018-10-21T17:17:45.127Z,16.97
2018-10-21T17:20:16.365Z,14.80
2018-10-21T17:22:46.068Z,14.83
2018-10-21T17:25:15.337Z,14.23
2018-10-21T17:27:44.148Z,14.00
2018-10-21T17:30:15.227Z,13.97
2018-10-21T17:32:44.399Z,15.07
2018-10-21T17:35:13.678Z,17.57
2018-10-21T17:37:42.339Z,18.43
2018-10-21T17:40:11.965Z,18.60
2018-10-21T17:42:41.369Z,18.17
2018-10-21T17:45:12.303Z,17.00
2018-10-21T17:47:40.858Z,20.43
2018-10-21T17:50:11.933Z,22.83
2018-10-21T17:52:40.860Z,21.53
2018-10-21T17:55:10.891Z,23.93
2018-10-21T17:57:39.715Z,18.07
2018-10-21T18:00:09.924Z,20.60
2018-10-21T18:02:38.716Z,23.87
2018-10-21T18:05:09.097Z,21.60
2018-10-21T18:07:37.773Z,22.63
2018-10-21T18:10:06.819Z,26.30
2018-10-21T18:12:35.375Z,21.70
2018-10-21T18:15:04.000Z,24.73
2018-10-21T18:17:32.564Z,21.73
2018-10-21T18:20:01.360Z,19.70
2018-10-21T18:22:29.856Z,18.37
2018-10-21T18:24:58.501Z,18.70
2018-10-21T18:27:27.019Z,17.23
2018-10-21T18:29:55.671Z,19.03
2018-10-21T18:32:24.232Z,19.43
2018-10-21T18:34:52.704Z,20.77
2018-10-21T18:37:21.238Z,20.83
2018-10-21T18:39:50.310Z,17.70
2018-10-21T18:42:19.210Z,17.13
2018-10-21T18:44:47.855Z,18.17
2018-10-21T18:47:16.380Z,17.80
2018-10-21T18:49:44.983Z,18.20
2018-10-21T18:52:13.738Z,19.30
2018-10-21T18:54:42.188Z,19.00
2018-10-21T18:57:10.795Z,19.03
2018-10-21T18:59:39.403Z,20.37
2018-10-21T19:02:08.167Z,19.27
2018-10-21T19:04:36.775Z,19.90
2018-10-21T19:07:11.191Z,20.27
2018-10-21T19:09:44.562Z,21.00
2018-10-21T19:12:13.220Z,19.73
2018-10-21T19:14:41.737Z,19.90
2018-10-21T19:17:10.691Z,18.13
2018-10-21T19:19:41.096Z,24.77
2018-10-21T19:22:09.954Z,18.70
2018-10-21T19:24:39.506Z,19.33
2018-10-21T19:27:08.221Z,18.00
2018-10-21T19:29:36.719Z,21.07
2018-10-21T19:32:05.413Z,19.53
2018-10-21T19:34:34.023Z,20.30
2018-10-21T19:37:02.569Z,21.03
2018-10-21T19:39:31.164Z,22.13
2018-10-21T19:41:59.722Z,19.70
2018-10-21T19:44:28.433Z,19.90
2018-10-21T19:46:57.094Z,18.60
2018-10-21T19:49:25.628Z,20.53
2018-10-21T19:51:55.378Z,18.60
2018-10-21T19:54:23.892Z,20.30
2018-10-21T19:56:52.544Z,19.93
2018-10-21T19:59:21.136Z,22.60
2018-10-21T20:01:49.750Z,20.73
2018-10-21T20:04:18.880Z,20.50
2018-10-21T20:06:47.366Z,19.17
2018-10-21T20:09:15.908Z,22.13
2018-10-21T20:11:44.433Z,27.93
2018-10-21T20:14:13.038Z,26.13
2018-10-21T20:16:41.550Z,28.47
2018-10-21T20:19:10.150Z,23.10
2018-10-21T20:21:39.824Z,24.73
2018-10-21T20:24:08.434Z,22.17
2018-10-21T20:26:37.004Z,21.60
2018-10-21T20:29:05.931Z,21.30
2018-10-21T20:31:35.993Z,21.40
2018-10-21T20:34:04.671Z,22.00
2018-10-21T20:36:33.256Z,22.17
2018-10-21T20:39:01.807Z,20.17
2018-10-21T20:41:30.536Z,25.37
2018-10-21T20:43:59.014Z,21.80
2018-10-21T20:46:27.655Z,23.57
2018-10-21T20:48:56.265Z,25.83
2018-10-21T20:51:24.919Z,28.23
2018-10-21T20:53:53.505Z,25.33
2018-10-21T20:56:22.052Z,27.27
2018-10-21T20:58:51.188Z,26.40
2018-10-21T21:01:19.959Z,28.10
2018-10-21T21:03:48.559Z,24.93
2018-10-21T21:06:17.196Z,24.43
2018-10-21T21:08:48.444Z,23.80
2018-10-21T21:11:20.041Z,23.97
2018-10-21T21:13:48.569Z,24.57
2018-10-21T21:16:17.256Z,23.93
2018-10-21T21:18:46.418Z,25.30
2018-10-21T21:21:15.108Z,25.53
2018-10-21T21:23:43.592Z,27.50
2018-10-21T21:26:12.107Z,31.60
2018-10-21T21:28:40.659Z,27.10
2018-10-21T21:31:09.232Z,25.37
2018-10-21T21:33:38.461Z,26.53
2018-10-21T21:36:07.194Z,24.40
2018-10-21T21:38:35.767Z,25.27
2018-10-21T21:41:04.301Z,23.87
2018-10-21T21:43:32.865Z,25.13
2018-10-21T21:46:01.475Z,25.20
2018-10-21T21:48:29.999Z,29.63
2018-10-21T21:50:58.512Z,28.00
2018-10-21T21:53:27.024Z,30.07
2018-10-21T21:55:55.693Z,25.43
2018-10-21T21:58:24.269Z,26.40
2018-10-21T22:00:52.813Z,23.87
2018-10-21T22:03:22.060Z,21.43
2018-10-21T22:05:50.606Z,21.60
2018-10-21T22:08:19.336Z,20.37
2018-10-21T22:10:47.892Z,21.00
2018-10-21T22:13:16.405Z,20.37
2018-10-21T22:15:45.077Z,24.60
2018-10-21T22:18:13.732Z,23.87
2018-10-21T22:20:42.161Z,21.67
2018-10-21T22:23:10.677Z,21.57
2018-10-21T22:25:39.197Z,21.93
2018-10-21T22:28:08.165Z,20.97
2018-10-21T22:30:36.693Z,26.87
2018-10-21T22:33:05.361Z,26.30
2018-10-21T22:35:33.891Z,21.87
2018-10-21T22:38:02.474Z,24.00
2018-10-21T22:40:30.981Z,22.77
2018-10-21T22:42:59.525Z,21.10
2018-10-21T22:45:28.032Z,27.13
2018-10-21T22:47:56.600Z,24.23
2018-10-21T22:50:25.115Z,25.17
2018-10-21T22:52:53.989Z,23.17
2018-10-21T22:55:22.655Z,21.93
2018-10-21T22:57:51.350Z,22.73
2018-10-21T23:00:20.013Z,22.60
2018-10-21T23:02:53.127Z,24.10
2018-10-21T23:05:23.243Z,25.07
2018-10-21T23:07:51.879Z,21.60
2018-10-21T23:10:20.395Z,21.97
2018-10-21T23:12:48.978Z,24.27
2018-10-21T23:15:17.692Z,22.20
2018-10-21T23:17:46.272Z,21.17
2018-10-21T23:20:14.780Z,23.13
2018-10-21T23:22:43.397Z,22.30
2018-10-21T23:25:11.919Z,20.07
2018-10-21T23:27:40.680Z,20.43
2018-10-21T23:30:09.189Z,27.00
2018-10-21T23:32:37.766Z,23.17
2018-10-21T23:35:06.780Z,22.67
2018-10-21T23:37:35.275Z,21.70
2018-10-21T23:40:03.952Z,22.03
2018-10-21T23:42:32.515Z,24.87
2018-10-21T23:45:01.097Z,23.10
2018-10-21T23:47:29.639Z,24.17
2018-10-21T23:49:58.185Z,26.13
2018-10-21T23:52:26.709Z,28.10
2018-10-21T23:54:55.215Z,23.93
2018-10-21T23:57:23.772Z,26.63
2018-10-21T23:59:52.402Z,24.73
